createdAt,value
2017-10-03T09:40:48.336Z,56.72
2017-10-03T09:41:48.028Z,55.34
2017-10-03T09:43:41.637Z,58.20
2017-10-03T09:52:31.923Z,60.94
2017-10-03T09:53:31.890Z,59.81
2017-10-03T09:55:27.795Z,58.27
2017-10-03T09:56:27.752Z,57.24
2017-10-03T09:58:21.464Z,57.31
2017-10-03T09:59:21.453Z,59.49
2017-10-03T10:01:15.867Z,61.16
2017-10-03T10:02:15.835Z,61.71
2017-10-03T10:04:09.559Z,63.22
2017-10-03T10:05:09.587Z,63.57
2017-10-03T10:07:03.105Z,64.63
2017-10-03T10:08:03.097Z,64.15
2017-10-03T10:09:56.628Z,64.43
2017-10-03T10:10:56.587Z,65.20
2017-10-03T10:12:50.267Z,62.52
2017-10-03T10:13:50.261Z,63.02
2017-10-03T10:15:43.861Z,63.15
2017-10-03T10:16:43.825Z,64.18
2017-10-03T10:18:37.559Z,64.05
2017-10-03T10:19:37.475Z,64.15
2017-10-03T10:21:31.030Z,62.77
2017-10-03T10:22:31.024Z,64.79
2017-10-03T10:24:24.689Z,66.96
2017-10-03T10:25:24.657Z,66.86
2017-10-03T10:27:18.237Z,65.52
2017-10-03T10:28:18.230Z,66.10
2017-10-03T10:29:18.226Z,64.37
2017-10-03T10:30:18.223Z,64.28
2017-10-03T10:31:18.228Z,64.76
2017-10-03T10:32:18.219Z,63.03
2017-10-03T10:33:18.215Z,63.79
2017-10-03T10:34:18.210Z,63.89
2017-10-03T10:35:18.213Z,64.47
2017-10-03T10:36:18.204Z,65.81
2017-10-03T10:37:18.204Z,64.72
2017-10-03T10:38:18.198Z,64.72
2017-10-03T10:39:18.205Z,64.53
2017-10-03T10:40:18.192Z,65.05
2017-10-03T10:41:18.191Z,65.05
2017-10-03T10:42:18.195Z,64.09
2017-10-03T10:43:18.184Z,63.79
2017-10-03T10:44:18.181Z,64.47
2017-10-03T10:45:18.176Z,63.99
2017-10-03T10:46:18.193Z,63.70
2017-10-03T10:47:18.171Z,64.28
2017-10-03T10:48:18.164Z,63.79
2017-10-03T10:49:18.162Z,64.09
2017-10-03T10:50:18.161Z,63.89
2017-10-03T10:51:18.156Z,63.92
2017-10-03T10:52:18.153Z,61.81
2017-10-03T10:53:18.149Z,61.65
2017-10-03T10:54:18.147Z,59.28
2017-10-03T10:55:18.143Z,57.68
2017-10-03T10:56:18.139Z,57.75
2017-10-03T10:57:18.134Z,58.51
2017-10-03T10:58:18.136Z,57.26
2017-10-03T10:59:18.130Z,56.65
2017-10-03T11:00:18.132Z,57.35
2017-10-03T11:01:18.127Z,55.11
2017-10-03T11:02:18.145Z,56.07
2017-10-03T11:03:18.132Z,55.43
2017-10-03T11:04:18.122Z,53.05
2017-10-03T11:05:18.119Z,53.53
2017-10-03T11:06:18.123Z,52.85
2017-10-03T11:07:18.118Z,54.42
2017-10-03T11:08:18.119Z,52.20
2017-10-03T11:09:18.117Z,52.01
2017-10-03T11:10:18.116Z,52.01
2017-10-03T11:11:18.121Z,51.14
2017-10-03T11:12:18.118Z,50.78
2017-10-03T11:13:18.117Z,49.73
2017-10-03T11:14:18.119Z,51.26
2017-10-03T11:15:18.134Z,52.33
2017-10-03T11:16:18.124Z,50.95
2017-10-03T11:17:18.135Z,50.95
2017-10-03T11:18:18.263Z,52.81
2017-10-03T11:19:18.131Z,51.82
2017-10-03T11:20:18.129Z,52.47
2017-10-03T11:21:18.138Z,52.47
2017-10-03T11:22:18.133Z,52.95
2017-10-03T11:23:18.135Z,52.95
2017-10-03T11:24:18.137Z,52.92
2017-10-03T11:25:18.138Z,53.11
2017-10-03T11:26:18.161Z,53.11
2017-10-03T11:27:18.141Z,54.65
2017-10-03T11:28:18.146Z,54.65
2017-10-03T11:29:18.148Z,55.04
2017-10-03T11:30:18.147Z,54.17
2017-10-03T11:31:18.148Z,53.96
2017-10-03T11:32:18.149Z,55.98
2017-10-03T11:33:18.151Z,53.88
2017-10-03T11:34:18.163Z,53.86
2017-10-03T11:35:18.157Z,53.88
2017-10-03T11:36:18.156Z,54.27
2017-10-03T11:37:18.157Z,52.44
2017-10-03T11:38:18.158Z,52.89
2017-10-03T11:39:18.159Z,51.76
2017-10-03T11:40:18.173Z,51.55
2017-10-03T11:41:18.162Z,53.28
2017-10-03T11:42:18.165Z,53.40
2017-10-03T11:43:18.164Z,52.83
2017-10-03T11:44:18.167Z,52.15
2017-10-03T11:45:18.167Z,52.73
2017-10-03T11:46:18.170Z,52.83
2017-10-03T11:47:18.170Z,52.92
2017-10-03T11:48:18.175Z,51.96
2017-10-03T11:49:18.174Z,53.59
2017-10-03T11:50:18.176Z,52.25
2017-10-03T11:51:18.179Z,51.96
2017-10-03T11:52:18.184Z,54.08
2017-10-03T11:53:18.180Z,53.23
2017-10-03T11:54:18.183Z,51.98
2017-10-03T11:55:18.186Z,51.50
2017-10-03T11:56:18.186Z,50.99
2017-10-03T11:57:18.188Z,51.29
2017-10-03T11:58:18.193Z,50.90
2017-10-03T11:59:18.198Z,52.15
2017-10-03T12:00:18.195Z,52.12
2017-10-03T12:01:18.196Z,52.80
2017-10-03T12:02:18.197Z,51.84
2017-10-03T12:03:18.199Z,55.20
2017-10-03T12:04:18.202Z,56.52
2017-10-03T12:05:18.202Z,57.48
2017-10-03T12:06:18.201Z,56.49
2017-10-03T12:07:18.203Z,56.66
2017-10-03T12:08:18.206Z,57.23
2017-10-03T12:09:18.208Z,57.50
2017-10-03T12:10:18.203Z,59.51
2017-10-03T12:11:18.203Z,60.53
2017-10-03T12:12:18.203Z,60.53
2017-10-03T12:13:18.201Z,61.88
2017-10-03T12:14:18.201Z,63.03
2017-10-03T12:15:18.202Z,62.16
2017-10-03T12:16:18.197Z,62.84
2017-10-03T12:17:18.200Z,62.45
2017-10-03T12:18:18.196Z,62.65
2017-10-03T12:19:18.193Z,63.89
2017-10-03T12:20:18.191Z,63.03
2017-10-03T12:21:18.188Z,62.96
2017-10-03T12:22:18.187Z,62.01
2017-10-03T12:23:18.188Z,62.68
2017-10-03T12:24:18.184Z,60.57
2017-10-03T12:25:18.191Z,60.78
2017-10-03T12:26:18.183Z,61.08
2017-10-03T12:27:18.176Z,61.97
2017-10-03T12:28:18.174Z,61.11
2017-10-03T12:29:18.174Z,61.01
2017-10-03T12:30:18.171Z,60.82
2017-10-03T12:31:18.172Z,60.05
2017-10-03T12:32:18.176Z,60.94
2017-10-03T12:33:18.168Z,58.92
2017-10-03T12:34:18.170Z,58.92
2017-10-03T12:35:18.175Z,58.25
2017-10-03T12:36:18.595Z,59.41
2017-10-03T12:37:21.235Z,59.02
2017-10-03T12:38:18.172Z,59.31
2017-10-03T12:39:18.169Z,60.75
2017-10-03T12:40:18.170Z,60.66
2017-10-03T12:41:18.172Z,60.46
2017-10-03T12:42:18.171Z,58.06
2017-10-03T12:43:18.174Z,58.25
2017-10-03T12:44:18.183Z,58.18
2017-10-03T12:45:18.174Z,57.42
2017-10-03T12:46:18.175Z,57.90
2017-10-03T12:47:18.176Z,56.74
2017-10-03T12:48:18.231Z,55.88
2017-10-03T12:49:18.181Z,56.91
2017-10-03T12:50:18.182Z,57.22
2017-10-03T12:51:18.187Z,55.94
2017-10-03T12:52:18.207Z,57.42
2017-10-03T12:53:18.188Z,57.90
2017-10-03T12:54:18.189Z,59.24
2017-10-03T12:55:18.190Z,56.65
2017-10-03T12:56:18.191Z,58.18
2017-10-03T12:57:18.193Z,57.80
2017-10-03T12:58:18.194Z,58.37
2017-10-03T12:59:18.197Z,57.51
2017-10-03T13:00:18.202Z,57.32
2017-10-03T13:01:18.201Z,57.99
2017-10-03T13:02:18.201Z,56.96
2017-10-03T13:03:18.203Z,57.35
2017-10-03T13:04:18.207Z,56.48
2017-10-03T13:05:18.232Z,56.38
2017-10-03T13:06:18.208Z,55.62
2017-10-03T13:07:18.211Z,57.25
2017-10-03T13:08:18.213Z,56.65
2017-10-03T13:09:18.214Z,56.74
2017-10-03T13:10:18.218Z,57.32
2017-10-03T13:11:18.214Z,57.48
2017-10-03T13:12:18.224Z,59.79
2017-10-03T13:13:18.224Z,56.91
2017-10-03T13:14:18.219Z,57.58
2017-10-03T13:15:18.217Z,57.84
2017-10-03T13:16:18.225Z,58.42
2017-10-03T13:17:18.217Z,58.89
2017-10-03T13:18:18.217Z,61.11
2017-10-03T13:19:18.218Z,63.02
2017-10-03T13:20:18.218Z,61.84
2017-10-03T13:21:18.217Z,61.94
2017-10-03T13:22:18.214Z,60.66
2017-10-03T13:23:18.217Z,63.45
2017-10-03T13:24:18.216Z,61.81
2017-10-03T13:25:18.212Z,63.25
2017-10-03T13:26:18.208Z,62.87
2017-10-03T13:27:18.205Z,62.48
2017-10-03T13:28:18.206Z,61.91
2017-10-03T13:29:18.202Z,61.69
2017-10-03T13:30:18.217Z,63.42
2017-10-03T13:31:18.197Z,64.66
2017-10-03T13:32:18.194Z,64.09
2017-10-03T13:33:18.202Z,64.34
2017-10-03T13:34:18.190Z,65.11
2017-10-03T13:35:18.189Z,65.88
2017-10-03T13:36:18.185Z,66.99
2017-10-03T13:37:18.179Z,67.18
2017-10-03T13:38:18.182Z,67.85
2017-10-03T13:39:18.175Z,68.72
2017-10-03T13:40:18.169Z,68.14
2017-10-03T13:41:18.165Z,67.28
2017-10-03T13:42:18.161Z,67.38
2017-10-03T13:43:18.201Z,69.10
2017-10-03T13:44:18.171Z,69.01
2017-10-03T13:45:18.150Z,68.91
2017-10-03T13:46:18.151Z,69.29
2017-10-03T13:47:18.140Z,68.62
2017-10-03T13:48:18.136Z,68.33
2017-10-03T13:49:18.132Z,69.20
2017-10-03T13:50:18.144Z,69.20
2017-10-03T13:51:18.125Z,68.52
2017-10-03T13:52:18.123Z,68.85
2017-10-03T13:53:18.115Z,69.39
2017-10-03T13:54:18.109Z,67.50
2017-10-03T13:55:18.105Z,67.89
2017-10-03T13:56:18.100Z,68.75
2017-10-03T13:57:18.105Z,68.75
2017-10-03T13:58:18.091Z,67.44
2017-10-03T13:59:18.090Z,67.25
2017-10-03T14:00:18.084Z,66.96
2017-10-03T14:01:18.079Z,67.16
2017-10-03T14:02:18.075Z,65.91
2017-10-03T14:03:18.074Z,66.77
2017-10-03T14:04:18.070Z,65.23
2017-10-03T14:05:18.065Z,66.29
2017-10-03T14:06:18.062Z,65.72
2017-10-03T14:07:18.070Z,66.29
2017-10-03T14:08:18.056Z,67.06
2017-10-03T14:09:18.055Z,67.25
2017-10-03T14:10:18.050Z,66.67
2017-10-03T14:11:18.047Z,66.39
2017-10-03T14:12:18.042Z,66.19
2017-10-03T14:13:18.039Z,65.91
2017-10-03T14:14:18.038Z,66.39
2017-10-03T14:15:18.033Z,65.84
2017-10-03T14:16:18.036Z,66.13
2017-10-03T14:17:18.026Z,64.02
2017-10-03T14:18:18.022Z,64.40
2017-10-03T14:19:18.019Z,63.06
2017-10-03T14:20:18.025Z,63.25
2017-10-03T14:21:18.013Z,63.25
2017-10-03T14:22:18.024Z,62.84
2017-10-03T14:23:18.008Z,64.28
2017-10-03T14:24:18.023Z,63.89
2017-10-03T14:25:18.001Z,63.51
2017-10-03T14:26:17.997Z,63.70
2017-10-03T14:27:17.996Z,64.56
2017-10-03T14:28:17.992Z,63.67
2017-10-03T14:29:17.986Z,64.25
2017-10-03T14:30:17.989Z,64.15
2017-10-03T14:31:17.978Z,64.43
2017-10-03T14:32:17.978Z,64.72
2017-10-03T14:33:17.986Z,64.43
2017-10-03T14:34:17.967Z,64.43
2017-10-03T14:35:17.971Z,64.72
2017-10-03T14:36:17.964Z,64.40
2017-10-03T14:37:17.953Z,63.26
2017-10-03T14:38:17.953Z,61.53
2017-10-03T14:39:17.962Z,61.63
2017-10-03T14:40:17.941Z,60.76
2017-10-03T14:41:17.936Z,60.67
2017-10-03T14:42:17.933Z,60.19
2017-10-03T14:43:17.928Z,60.38
2017-10-03T14:44:17.921Z,60.09
2017-10-03T14:45:17.917Z,60.76
2017-10-03T14:46:17.915Z,61.15
2017-10-03T14:47:17.907Z,60.96
2017-10-03T14:48:17.903Z,61.05
2017-10-03T14:49:17.900Z,60.38
2017-10-03T14:50:17.892Z,60.03
2017-10-03T14:51:17.886Z,58.97
2017-10-03T14:52:17.888Z,59.55
2017-10-03T14:53:17.875Z,59.45
2017-10-03T14:54:17.871Z,58.78
2017-10-03T14:55:17.866Z,58.97
2017-10-03T14:56:17.862Z,58.78
2017-10-03T14:57:17.857Z,57.72
2017-10-03T14:58:17.851Z,57.92
2017-10-03T14:59:17.849Z,58.87
2017-10-03T15:00:17.846Z,59.45
2017-10-03T15:01:17.837Z,59.16
2017-10-03T15:02:17.832Z,60.03
2017-10-03T15:03:17.828Z,58.78
2017-10-03T15:04:17.824Z,59.16
2017-10-03T15:05:17.818Z,60.22
2017-10-03T15:06:17.812Z,60.41
2017-10-03T15:07:17.807Z,60.41
2017-10-03T15:08:17.802Z,59.64
2017-10-03T15:09:17.797Z,60.38
2017-10-03T15:10:17.792Z,60.47
2017-10-03T15:11:17.788Z,61.43
2017-10-03T15:12:17.787Z,62.39
2017-10-03T15:13:17.777Z,62.10
2017-10-03T15:14:17.769Z,61.72
2017-10-03T15:15:17.764Z,62.01
2017-10-03T15:16:17.761Z,62.68
2017-10-03T15:17:17.758Z,63.64
2017-10-03T15:18:17.750Z,64.02
2017-10-03T15:19:17.745Z,62.87
2017-10-03T15:20:17.740Z,64.18
2017-10-03T15:21:17.734Z,64.66
2017-10-03T15:22:17.727Z,64.47
2017-10-03T15:23:17.730Z,65.05
2017-10-03T15:24:17.717Z,65.23
2017-10-03T15:25:17.711Z,65.62
2017-10-03T15:26:17.705Z,65.62
2017-10-03T15:27:17.701Z,65.62
2017-10-03T15:28:17.698Z,66.58
2017-10-03T15:29:17.687Z,67.25
2017-10-03T15:30:17.683Z,67.44
2017-10-03T15:31:17.677Z,67.05
2017-10-03T15:32:17.671Z,66.67
2017-10-03T15:33:17.664Z,66.96
2017-10-03T15:34:17.664Z,67.05
2017-10-03T15:35:17.653Z,68.01
2017-10-03T15:36:17.649Z,68.30
2017-10-03T15:37:17.643Z,68.11
2017-10-03T15:38:17.636Z,68.59
2017-10-03T15:39:17.631Z,68.30
2017-10-03T15:40:17.624Z,68.78
2017-10-03T15:41:17.617Z,68.97
2017-10-03T15:42:17.612Z,69.42
2017-10-03T15:43:17.605Z,70.28
2017-10-03T15:44:17.654Z,69.99
2017-10-03T15:45:17.591Z,70.95
2017-10-03T15:46:17.592Z,70.56
2017-10-03T15:47:17.581Z,71.42
2017-10-03T15:48:17.621Z,71.62
2017-10-03T15:49:17.577Z,71.52
2017-10-03T15:50:17.585Z,71.81
2017-10-03T15:51:17.560Z,72.48
2017-10-03T15:52:17.549Z,72.86
2017-10-03T15:53:17.547Z,73.44
2017-10-03T15:54:17.538Z,72.96
2017-10-03T15:55:17.532Z,73.82
2017-10-03T15:56:17.524Z,73.63
2017-10-03T15:57:17.522Z,74.20
2017-10-03T15:58:17.514Z,74.30
2017-10-03T15:59:17.506Z,74.30
2017-10-03T16:00:17.501Z,74.40
2017-10-03T16:01:17.492Z,74.49
2017-10-03T16:02:17.487Z,74.58
2017-10-03T16:03:17.486Z,74.97
2017-10-03T16:04:17.475Z,74.84
2017-10-03T16:05:17.468Z,74.93
2017-10-03T16:06:17.464Z,75.41
2017-10-03T16:07:17.479Z,75.51
2017-10-03T16:08:17.451Z,75.79
2017-10-03T16:09:17.448Z,75.31
2017-10-03T16:10:17.436Z,74.74
2017-10-03T16:11:17.431Z,74.74
2017-10-03T16:12:17.425Z,74.36
2017-10-03T16:13:17.417Z,74.65
2017-10-03T16:14:17.412Z,73.88
2017-10-03T16:15:17.405Z,74.26
2017-10-03T16:16:17.398Z,74.55
2017-10-03T16:17:17.390Z,74.55
2017-10-03T16:18:17.390Z,74.16
2017-10-03T16:19:17.378Z,73.40
2017-10-03T16:20:17.377Z,74.93
2017-10-03T16:21:17.365Z,73.79
2017-10-03T16:22:17.359Z,73.11
2017-10-03T16:23:17.353Z,71.68
2017-10-03T16:24:17.347Z,73.11
2017-10-03T16:25:17.343Z,72.63
2017-10-03T16:26:17.332Z,72.63
2017-10-03T16:27:17.400Z,72.54
2017-10-03T16:28:17.320Z,72.34
2017-10-03T16:29:17.313Z,72.63
2017-10-03T16:30:17.307Z,72.83
2017-10-03T16:31:17.305Z,73.30
2017-10-03T16:32:17.294Z,72.83
2017-10-03T16:33:17.286Z,73.46
2017-10-03T16:34:17.279Z,72.98
2017-10-03T16:35:17.277Z,73.46
2017-10-03T16:36:17.266Z,73.55
2017-10-03T16:37:17.260Z,74.41
2017-10-03T16:38:17.252Z,74.90
2017-10-03T16:39:17.251Z,74.70
2017-10-03T16:40:17.245Z,74.51
2017-10-03T16:41:17.233Z,74.41
2017-10-03T16:42:17.226Z,74.51
2017-10-03T16:43:17.220Z,74.80
2017-10-03T16:44:17.212Z,75.18
2017-10-03T16:45:17.213Z,75.27
2017-10-03T16:46:17.197Z,74.99
2017-10-03T16:47:17.192Z,75.47
2017-10-03T16:48:17.182Z,75.76
2017-10-03T16:49:17.178Z,75.37
2017-10-03T16:50:17.171Z,75.18
2017-10-03T16:51:17.169Z,75.24
2017-10-03T16:52:17.155Z,75.52
2017-10-03T16:53:17.147Z,75.81
2017-10-03T16:54:17.148Z,75.91
2017-10-03T16:55:17.134Z,75.71
2017-10-03T16:56:17.130Z,75.81
2017-10-03T16:57:17.121Z,75.81
2017-10-03T16:58:17.112Z,76.00
2017-10-03T16:59:17.107Z,76.00
2017-10-03T17:00:17.098Z,75.81
2017-10-03T17:01:17.090Z,76.48
2017-10-03T17:02:17.082Z,75.81
2017-10-03T17:03:17.075Z,76.48
2017-10-03T17:04:17.068Z,75.62
2017-10-03T17:05:17.060Z,76.39
2017-10-03T17:06:17.054Z,75.81
2017-10-03T17:07:17.045Z,76.29
2017-10-03T17:08:17.040Z,75.81
2017-10-03T17:09:17.034Z,76.29
2017-10-03T17:10:17.022Z,76.29
2017-10-03T17:11:17.017Z,75.91
2017-10-03T17:12:17.008Z,75.68
2017-10-03T17:13:17.001Z,76.20
2017-10-03T17:14:16.990Z,76.06
2017-10-03T17:15:16.987Z,75.96
2017-10-03T17:16:16.977Z,76.64
2017-10-03T17:17:16.974Z,75.87
2017-10-03T17:18:16.962Z,76.64
2017-10-03T17:19:16.953Z,77.40
2017-10-03T17:20:16.955Z,77.78
2017-10-03T17:21:16.952Z,78.16
2017-10-03T17:22:16.937Z,78.55
2017-10-03T17:23:16.924Z,78.45
2017-10-03T17:24:16.917Z,78.26
2017-10-03T17:25:16.909Z,79.31
2017-10-03T17:26:16.900Z,79.50
2017-10-03T17:27:16.893Z,79.98
2017-10-03T17:28:16.886Z,79.69
2017-10-03T17:29:16.878Z,79.94
2017-10-03T17:30:16.869Z,79.69
2017-10-03T17:31:16.863Z,79.75
2017-10-03T17:32:16.855Z,80.13
2017-10-03T17:33:16.847Z,80.51
2017-10-03T17:34:16.836Z,80.04
2017-10-03T17:35:16.830Z,80.80
2017-10-03T17:36:16.822Z,81.09
2017-10-03T17:37:16.814Z,80.90
2017-10-03T17:38:16.807Z,81.76
2017-10-03T17:39:16.798Z,81.76
2017-10-03T17:40:16.797Z,81.18
2017-10-03T17:41:16.782Z,81.66
2017-10-03T17:42:16.786Z,81.76
2017-10-03T17:43:16.768Z,81.66
2017-10-03T17:44:16.759Z,82.23
2017-10-03T17:45:16.750Z,81.85
2017-10-03T17:46:16.741Z,82.76
2017-10-03T17:47:16.733Z,82.48
2017-10-03T17:48:16.727Z,82.67
2017-10-03T17:49:16.728Z,83.53
2017-10-03T17:50:16.714Z,83.43
2017-10-03T17:51:16.702Z,83.24
2017-10-03T17:52:16.694Z,82.67
2017-10-03T17:53:16.689Z,83.24
2017-10-03T17:54:16.677Z,83.53
2017-10-03T17:55:16.668Z,84.10
2017-10-03T17:56:16.662Z,83.81
2017-10-03T17:57:16.654Z,84.00
2017-10-03T17:58:16.645Z,84.29
2017-10-03T17:59:16.637Z,84.29
2017-10-03T18:00:16.640Z,84.20
2017-10-03T18:01:16.620Z,83.72
2017-10-03T18:02:16.612Z,84.48
2017-10-03T18:03:16.604Z,84.10
2017-10-03T18:04:16.595Z,83.91
2017-10-03T18:05:16.585Z,84.00
2017-10-03T18:06:16.585Z,84.10
2017-10-03T18:07:16.573Z,84.20
2017-10-03T18:08:16.567Z,84.86
2017-10-03T18:09:16.589Z,84.86
2017-10-03T18:10:16.548Z,84.00
2017-10-03T18:11:16.582Z,84.39
2017-10-03T18:12:16.531Z,84.86
2017-10-03T18:13:16.520Z,84.96
2017-10-03T18:14:16.543Z,84.86
2017-10-03T18:15:16.506Z,85.05
2017-10-03T18:16:16.497Z,84.96
2017-10-03T18:17:16.492Z,84.96
2017-10-03T18:18:16.485Z,84.86
2017-10-03T18:19:16.491Z,85.15
2017-10-03T18:20:16.468Z,85.05
2017-10-03T18:21:16.454Z,84.96
2017-10-03T18:22:16.451Z,84.96
2017-10-03T18:23:16.438Z,84.96
2017-10-03T18:24:16.431Z,84.86
2017-10-03T18:25:16.422Z,84.96
2017-10-03T18:26:16.413Z,85.05
2017-10-03T18:27:16.404Z,85.05
2017-10-03T18:28:16.397Z,84.77
2017-10-03T18:29:16.388Z,85.15
2017-10-03T18:30:16.381Z,85.05
2017-10-03T18:31:16.371Z,84.86
2017-10-03T18:32:16.362Z,85.05
2017-10-03T18:33:16.358Z,84.86
2017-10-03T18:34:16.344Z,84.86
2017-10-03T18:35:16.337Z,85.05
2017-10-03T18:36:16.332Z,85.05
2017-10-03T18:37:16.321Z,84.67
2017-10-03T18:38:16.311Z,84.86
2017-10-03T18:39:16.309Z,85.05
2017-10-03T18:40:16.296Z,84.96
2017-10-03T18:41:16.288Z,84.58
2017-10-03T18:42:16.280Z,84.39
2017-10-03T18:43:16.271Z,84.20
2017-10-03T18:44:16.262Z,84.39
2017-10-03T18:45:16.254Z,84.05
2017-10-03T18:46:16.244Z,84.14
2017-10-03T18:47:16.241Z,83.95
2017-10-03T18:48:16.229Z,84.10
2017-10-03T18:49:16.220Z,85.10
2017-10-03T18:50:16.211Z,85.15
2017-10-03T18:51:16.204Z,85.53
2017-10-03T18:52:16.194Z,86.05
2017-10-03T18:53:16.188Z,86.15
2017-10-03T18:54:16.180Z,86.58
2017-10-03T18:55:16.170Z,86.05
2017-10-03T18:56:16.163Z,86.43
2017-10-03T18:57:16.153Z,86.72
2017-10-03T18:58:16.145Z,86.77
2017-10-03T18:59:16.137Z,86.49
2017-10-03T19:00:16.130Z,86.30
2017-10-03T19:01:16.120Z,86.63
2017-10-03T19:02:16.119Z,86.01
2017-10-03T19:03:16.107Z,85.82
2017-10-03T19:04:16.111Z,85.82
2017-10-03T19:05:16.087Z,86.20
2017-10-03T19:06:16.079Z,85.63
2017-10-03T19:07:16.071Z,85.82
2017-10-03T19:08:16.067Z,86.20
2017-10-03T19:09:16.055Z,86.01
2017-10-03T19:10:16.051Z,85.63
2017-10-03T19:11:16.038Z,86.01
2017-10-03T19:12:16.055Z,86.01
2017-10-03T19:13:16.031Z,86.20
2017-10-03T19:14:16.011Z,85.82
2017-10-03T19:15:16.003Z,85.53
2017-10-03T19:16:15.995Z,85.97
2017-10-03T19:17:15.986Z,85.91
2017-10-03T19:18:15.982Z,85.97
2017-10-03T19:19:15.969Z,86.35
2017-10-03T19:20:15.961Z,85.53
2017-10-03T19:21:16.355Z,85.68
2017-10-03T19:22:16.351Z,85.39
2017-10-03T19:23:15.940Z,86.16
2017-10-03T19:24:15.929Z,85.77
2017-10-03T19:25:15.919Z,85.58
2017-10-03T19:26:15.909Z,85.77
2017-10-03T19:27:15.905Z,85.97
2017-10-03T19:28:15.891Z,85.87
2017-10-03T19:29:15.883Z,85.97
2017-10-03T19:30:15.876Z,85.97
2017-10-03T19:31:15.875Z,85.97
2017-10-03T19:32:15.858Z,86.16
2017-10-03T19:33:15.849Z,85.68
2017-10-03T19:34:15.847Z,85.63
2017-10-03T19:35:15.837Z,85.30
2017-10-03T19:36:15.824Z,85.49
2017-10-03T19:37:15.813Z,85.11
2017-10-03T19:38:15.806Z,85.25
2017-10-03T19:39:15.824Z,85.30
2017-10-03T19:40:15.789Z,85.05
2017-10-03T19:41:16.181Z,85.30
2017-10-03T19:42:16.182Z,85.39
2017-10-03T19:43:15.763Z,85.77
2017-10-03T19:44:15.755Z,85.11
2017-10-03T19:45:15.751Z,85.39
2017-10-03T19:46:15.738Z,85.58
2017-10-03T19:47:15.729Z,85.58
2017-10-03T19:48:15.722Z,85.97
2017-10-03T19:49:15.715Z,85.97
2017-10-03T19:50:15.702Z,85.68
2017-10-03T19:51:15.694Z,85.68
2017-10-03T19:52:15.685Z,85.77
2017-10-03T19:53:15.677Z,85.87
2017-10-03T19:54:15.667Z,86.16
2017-10-03T19:55:15.661Z,85.97
2017-10-03T19:56:15.650Z,85.93
2017-10-03T19:57:15.641Z,85.97
2017-10-03T19:58:15.632Z,85.93
2017-10-03T19:59:15.626Z,85.87
2017-10-03T20:00:15.616Z,85.87
2017-10-03T20:01:15.614Z,86.44
2017-10-03T20:02:15.598Z,86.06
2017-10-03T20:03:15.596Z,86.49
2017-10-03T20:04:15.579Z,86.78
2017-10-03T20:05:15.571Z,86.69
2017-10-03T20:06:15.567Z,86.59
2017-10-03T20:07:15.554Z,86.49
2017-10-03T20:08:15.748Z,86.49
2017-10-03T20:09:15.567Z,86.88
2017-10-03T20:10:15.531Z,86.78
2017-10-03T20:11:15.550Z,86.88
2017-10-03T20:12:15.537Z,87.07
2017-10-03T20:13:15.539Z,87.16
2017-10-03T20:14:15.508Z,87.07
2017-10-03T20:15:15.483Z,87.07
2017-10-03T20:16:15.477Z,87.35
2017-10-03T20:17:15.464Z,87.45
2017-10-03T20:18:15.457Z,87.35
2017-10-03T20:19:15.448Z,87.16
2017-10-03T20:20:15.442Z,87.35
2017-10-03T20:21:15.428Z,86.88
2017-10-03T20:22:15.418Z,87.93
2017-10-03T20:23:15.411Z,87.74
2017-10-03T20:24:15.411Z,87.93
2017-10-03T20:25:15.395Z,87.35
2017-10-03T20:26:15.387Z,87.64
2017-10-03T20:27:15.378Z,87.54
2017-10-03T20:28:15.368Z,87.74
2017-10-03T20:29:15.358Z,87.45
2017-10-03T20:30:15.349Z,87.35
2017-10-03T20:31:15.340Z,88.12
2017-10-03T20:32:15.332Z,87.93
2017-10-03T20:33:15.325Z,87.93
2017-10-03T20:34:15.314Z,87.74
2017-10-03T20:35:15.304Z,88.12
2017-10-03T20:36:15.295Z,88.40
2017-10-03T20:37:15.285Z,88.59
2017-10-03T20:38:15.276Z,88.36
2017-10-03T20:39:15.280Z,88.69
2017-10-03T20:40:15.260Z,88.59
2017-10-03T20:41:15.251Z,88.36
2017-10-03T20:42:15.247Z,88.36
2017-10-03T20:43:15.228Z,88.45
2017-10-03T20:44:15.222Z,88.74
2017-10-03T20:45:15.211Z,89.12
2017-10-03T20:46:15.202Z,89.50
2017-10-03T20:47:15.193Z,89.50
2017-10-03T20:48:15.185Z,89.22
2017-10-03T20:49:15.187Z,89.03
2017-10-03T20:50:15.164Z,89.31
2017-10-03T20:51:15.174Z,89.50
2017-10-03T20:52:15.147Z,89.69
2017-10-03T20:53:15.144Z,89.40
2017-10-03T20:54:15.128Z,89.69
2017-10-03T20:55:15.119Z,89.31
2017-10-03T20:56:15.110Z,89.22
2017-10-03T20:57:15.099Z,89.60
2017-10-03T20:58:15.095Z,89.60
2017-10-03T20:59:15.082Z,89.69
2017-10-03T21:00:15.076Z,89.40
2017-10-03T21:01:15.065Z,89.79
2017-10-03T21:02:15.056Z,89.60
2017-10-03T21:03:15.050Z,89.50
2017-10-03T21:04:15.038Z,90.36
2017-10-03T21:05:15.028Z,90.17
2017-10-03T21:06:15.018Z,89.98
2017-10-03T21:07:15.010Z,90.17
2017-10-03T21:08:15.000Z,90.17
2017-10-03T21:09:14.990Z,90.45
2017-10-03T21:10:14.984Z,89.79
2017-10-03T21:11:14.970Z,89.98
2017-10-03T21:12:15.841Z,90.26
2017-10-03T21:13:14.955Z,90.36
2017-10-03T21:14:14.942Z,90.45
2017-10-03T21:15:14.933Z,90.17
2017-10-03T21:16:14.924Z,91.03
2017-10-03T21:17:14.914Z,90.93
2017-10-03T21:18:14.904Z,89.98
2017-10-03T21:19:14.899Z,89.79
2017-10-03T21:20:14.886Z,89.98
2017-10-03T21:21:14.881Z,89.79
2017-10-03T21:22:14.872Z,90.36
2017-10-03T21:23:14.861Z,90.36
2017-10-03T21:24:14.853Z,89.50
2017-10-03T21:25:14.840Z,89.98
2017-10-03T21:26:14.829Z,90.17
2017-10-03T21:27:14.826Z,89.79
2017-10-03T21:28:14.812Z,89.98
2017-10-03T21:29:14.807Z,90.08
2017-10-03T21:30:14.795Z,90.45
2017-10-03T21:31:14.784Z,90.17
2017-10-03T21:32:14.776Z,89.98
2017-10-03T21:33:14.764Z,89.98
2017-10-03T21:34:14.754Z,90.17
2017-10-03T21:35:14.747Z,90.84
2017-10-03T21:36:14.742Z,90.45
2017-10-03T21:37:14.728Z,90.45
2017-10-03T21:38:14.723Z,90.45
2017-10-03T21:39:14.714Z,89.79
2017-10-03T21:40:14.701Z,91.03
2017-10-03T21:41:14.688Z,89.89
2017-10-03T21:42:14.682Z,90.64
2017-10-03T21:43:14.671Z,90.93
2017-10-03T21:44:14.662Z,91.13
2017-10-03T21:45:14.651Z,90.64
2017-10-03T21:46:14.643Z,90.93
2017-10-03T21:47:14.638Z,90.55
2017-10-03T21:48:14.624Z,90.74
2017-10-03T21:49:14.615Z,91.03
2017-10-03T21:50:14.605Z,90.84
2017-10-03T21:51:14.595Z,91.22
2017-10-03T21:52:14.587Z,90.84
2017-10-03T21:53:14.579Z,90.93
2017-10-03T21:54:14.572Z,90.45
2017-10-03T21:55:14.565Z,90.64
2017-10-03T21:56:14.549Z,91.03
2017-10-03T21:57:14.540Z,90.64
2017-10-03T21:58:14.543Z,90.84
2017-10-03T21:59:14.522Z,90.55
2017-10-03T22:00:14.512Z,90.55
2017-10-03T22:01:14.500Z,90.55
2017-10-03T22:02:14.494Z,90.74
2017-10-03T22:03:14.482Z,91.03
2017-10-03T22:04:14.473Z,90.64
2017-10-03T22:05:14.465Z,90.64
2017-10-03T22:06:14.457Z,90.84
2017-10-03T22:07:14.445Z,90.84
2017-10-03T22:08:14.435Z,90.64
2017-10-03T22:09:14.427Z,90.74
2017-10-03T22:10:14.414Z,91.03
2017-10-03T22:11:14.407Z,90.93
2017-10-03T22:12:14.398Z,90.64
2017-10-03T22:13:14.389Z,90.55
2017-10-03T22:14:14.380Z,91.03
2017-10-03T22:15:14.377Z,90.74
2017-10-03T22:16:14.360Z,90.93
2017-10-03T22:17:14.351Z,91.03
2017-10-03T22:18:14.341Z,90.45
2017-10-03T22:19:14.350Z,91.22
2017-10-03T22:20:14.322Z,90.93
2017-10-03T22:21:14.319Z,91.03
2017-10-03T22:22:14.306Z,89.98
2017-10-03T22:23:14.295Z,90.45
2017-10-03T22:24:14.284Z,89.79
2017-10-03T22:25:14.275Z,89.98
2017-10-03T22:26:14.266Z,90.55
2017-10-03T22:27:14.259Z,89.98
2017-10-03T22:28:14.253Z,90.17
2017-10-03T22:29:14.238Z,89.98
2017-10-03T22:30:14.230Z,90.17
2017-10-03T22:31:14.220Z,90.08
2017-10-03T22:32:14.211Z,90.17
2017-10-03T22:33:14.206Z,89.98
2017-10-03T22:34:14.189Z,89.89
2017-10-03T22:35:14.181Z,89.60
2017-10-03T22:36:14.173Z,89.69
2017-10-03T22:37:14.163Z,89.50
2017-10-03T22:38:14.155Z,89.40
2017-10-03T22:39:14.145Z,89.12
2017-10-03T22:40:14.133Z,89.79
2017-10-03T22:41:14.125Z,89.22
2017-10-03T22:42:14.114Z,88.93
2017-10-03T22:43:14.104Z,89.12
2017-10-03T22:44:14.098Z,89.12
2017-10-03T22:45:14.087Z,89.12
2017-10-03T22:46:14.082Z,89.12
2017-10-03T22:47:14.067Z,89.03
2017-10-03T22:48:14.059Z,89.03
2017-10-03T22:49:14.050Z,89.31
2017-10-03T22:50:14.040Z,89.12
2017-10-03T22:51:14.030Z,88.45
2017-10-03T22:52:14.022Z,89.03